sensor_id;sensor_type;location;lat;lon;timestamp;pressure;altitude;pressure_sealevel;temperature;humidity
46944;BME280;32678;43.852;25.952;2022-10-16T00:02:25;102032.16;;;15.95;56.62
46944;BME280;32678;43.852;25.952;2022-10-16T00:07:23;102032.13;;;15.97;56.44
46944;BME280;32678;43.852;25.952;2022-10-16T00:12:20;102033.94;;;15.69;57.28
46944;BME280;32678;43.852;25.952;2022-10-16T00:17:16;102040.19;;;15.68;57.96
46944;BME280;32678;43.852;25.952;2022-10-16T00:22:13;102050.03;;;15.63;58.51
46944;BME280;32678;43.852;25.952;2022-10-16T00:27:10;102051.03;;;15.85;58.23
46944;BME280;32678;43.852;25.952;2022-10-16T00:32:07;102058.72;;;15.92;55.72
46944;BME280;32678;43.852;25.952;2022-10-16T00:37:04;102053.78;;;15.82;55.65
46944;BME280;32678;43.852;25.952;2022-10-16T00:42:01;102049.97;;;15.64;55.60
46944;BME280;32678;43.852;25.952;2022-10-16T00:46:59;102051.78;;;15.64;55.67
46944;BME280;32678;43.852;25.952;2022-10-16T00:51:55;102056.78;;;15.71;55.68
46944;BME280;32678;43.852;25.952;2022-10-16T00:56:52;102062.28;;;15.65;55.27
46944;BME280;32678;43.852;25.952;2022-10-16T01:01:50;102050.47;;;15.75;54.71
46944;BME280;32678;43.852;25.952;2022-10-16T01:06:51;102053.47;;;15.91;53.81
46944;BME280;32678;43.852;25.952;2022-10-16T01:11:55;102054.50;;;15.87;52.52
46944;BME280;32678;43.852;25.952;2022-10-16T01:16:58;102057.22;;;15.84;52.61
46944;BME280;32678;43.852;25.952;2022-10-16T01:21:57;102055.09;;;15.69;52.53
46944;BME280;32678;43.852;25.952;2022-10-16T01:27:08;102051.00;;;15.60;52.86
46944;BME280;32678;43.852;25.952;2022-10-16T01:32:13;102064.31;;;15.57;52.95
46944;BME280;32678;43.852;25.952;2022-10-16T01:37:11;102053.75;;;15.57;53.16
46944;BME280;32678;43.852;25.952;2022-10-16T01:42:11;102061.56;;;15.60;52.65
46944;BME280;32678;43.852;25.952;2022-10-16T01:47:11;102062.81;;;15.48;53.21
46944;BME280;32678;43.852;25.952;2022-10-16T01:52:10;102071.63;;;15.75;52.84
46944;BME280;32678;43.852;25.952;2022-10-16T01:57:08;102076.22;;;15.96;52.01
46944;BME280;32678;43.852;25.952;2022-10-16T02:02:08;102072.09;;;15.62;52.98
46944;BME280;32678;43.852;25.952;2022-10-16T02:07:05;102085.03;;;15.43;55.35
46944;BME280;32678;43.852;25.952;2022-10-16T02:12:03;102085.63;;;15.52;55.90
46944;BME280;32678;43.852;25.952;2022-10-16T02:17:10;102084.78;;;15.23;55.66
46944;BME280;32678;43.852;25.952;2022-10-16T02:22:07;102085.06;;;14.55;56.70
46944;BME280;32678;43.852;25.952;2022-10-16T02:27:05;102099.31;;;14.48;57.15
46944;BME280;32678;43.852;25.952;2022-10-16T02:32:07;102104.44;;;14.85;56.43
46944;BME280;32678;43.852;25.952;2022-10-16T02:37:06;102098.94;;;14.91;55.98
46944;BME280;32678;43.852;25.952;2022-10-16T02:42:03;102100.50;;;14.98;55.69
46944;BME280;32678;43.852;25.952;2022-10-16T02:46:59;102099.44;;;15.05;55.43
46944;BME280;32678;43.852;25.952;2022-10-16T02:51:56;102103.84;;;15.04;55.70
46944;BME280;32678;43.852;25.952;2022-10-16T02:56:54;102090.13;;;14.92;55.69
46944;BME280;32678;43.852;25.952;2022-10-16T03:01:53;102101.69;;;14.88;55.83
46944;BME280;32678;43.852;25.952;2022-10-16T03:06:50;102121.88;;;14.59;56.48
46944;BME280;32678;43.852;25.952;2022-10-16T03:11:46;102117.16;;;14.40;57.09
46944;BME280;32678;43.852;25.952;2022-10-16T03:16:44;102123.97;;;14.47;56.96
46944;BME280;32678;43.852;25.952;2022-10-16T03:21:41;102125.56;;;14.54;57.42
46944;BME280;32678;43.852;25.952;2022-10-16T03:26:39;102125.78;;;14.46;57.85
46944;BME280;32678;43.852;25.952;2022-10-16T03:31:38;102133.09;;;14.33;58.43
46944;BME280;32678;43.852;25.952;2022-10-16T03:36:38;102138.34;;;14.37;58.71
46944;BME280;32678;43.852;25.952;2022-10-16T03:41:34;102143.44;;;14.43;58.79
46944;BME280;32678;43.852;25.952;2022-10-16T03:46:31;102142.41;;;14.48;58.89
46944;BME280;32678;43.852;25.952;2022-10-16T03:51:28;102134.31;;;14.56;59.21
46944;BME280;32678;43.852;25.952;2022-10-16T03:56:26;102137.59;;;14.30;59.58
46944;BME280;32678;43.852;25.952;2022-10-16T04:01:23;102131.31;;;14.36;59.90
46944;BME280;32678;43.852;25.952;2022-10-16T04:06:20;102135.97;;;14.26;60.34
46944;BME280;32678;43.852;25.952;2022-10-16T04:11:17;102141.84;;;14.36;60.42
46944;BME280;32678;43.852;25.952;2022-10-16T04:16:17;102139.88;;;14.45;59.99
46944;BME280;32678;43.852;25.952;2022-10-16T04:21:14;102154.69;;;14.51;59.98
46944;BME280;32678;43.852;25.952;2022-10-16T04:26:11;102150.19;;;14.53;59.18
46944;BME280;32678;43.852;25.952;2022-10-16T04:31:08;102148.56;;;14.49;58.38
46944;BME280;32678;43.852;25.952;2022-10-16T04:36:05;102148.44;;;14.53;58.06
46944;BME280;32678;43.852;25.952;2022-10-16T04:41:02;102151.53;;;14.35;58.10
46944;BME280;32678;43.852;25.952;2022-10-16T04:45:59;102168.59;;;14.22;58.55
46944;BME280;32678;43.852;25.952;2022-10-16T04:50:56;102174.22;;;14.44;58.30
46944;BME280;32678;43.852;25.952;2022-10-16T04:55:53;102184.38;;;14.23;58.90
46944;BME280;32678;43.852;25.952;2022-10-16T05:00:50;102192.03;;;14.32;59.30
46944;BME280;32678;43.852;25.952;2022-10-16T05:05:46;102194.78;;;14.29;59.63
46944;BME280;32678;43.852;25.952;2022-10-16T05:10:46;102197.69;;;14.19;59.65
46944;BME280;32678;43.852;25.952;2022-10-16T05:15:46;102206.56;;;14.16;59.89
46944;BME280;32678;43.852;25.952;2022-10-16T05:20:43;102211.69;;;13.85;61.52
46944;BME280;32678;43.852;25.952;2022-10-16T05:25:41;102231.78;;;13.51;63.21
46944;BME280;32678;43.852;25.952;2022-10-16T05:30:38;102236.22;;;13.49;63.48
46944;BME280;32678;43.852;25.952;2022-10-16T05:35:35;102251.66;;;13.24;63.70
46944;BME280;32678;43.852;25.952;2022-10-16T05:40:32;102255.56;;;12.56;65.14
46944;BME280;32678;43.852;25.952;2022-10-16T05:45:29;102264.56;;;12.41;66.43
46944;BME280;32678;43.852;25.952;2022-10-16T05:50:26;102265.03;;;12.14;67.53
46944;BME280;32678;43.852;25.952;2022-10-16T05:55:23;102263.63;;;11.92;67.48
46944;BME280;32678;43.852;25.952;2022-10-16T06:00:20;102269.06;;;12.36;65.89
46944;BME280;32678;43.852;25.952;2022-10-16T06:05:17;102279.53;;;12.41;65.16
46944;BME280;32678;43.852;25.952;2022-10-16T06:10:13;102284.28;;;12.70;63.81
46944;BME280;32678;43.852;25.952;2022-10-16T06:15:11;102295.53;;;12.79;62.38
46944;BME280;32678;43.852;25.952;2022-10-16T06:20:08;102296.19;;;12.90;62.46
46944;BME280;32678;43.852;25.952;2022-10-16T06:25:05;102301.22;;;12.52;63.28
46944;BME280;32678;43.852;25.952;2022-10-16T06:30:03;102308.94;;;12.64;63.11
46944;BME280;32678;43.852;25.952;2022-10-16T06:35:02;102317.88;;;12.52;63.30
46944;BME280;32678;43.852;25.952;2022-10-16T06:40:00;102314.69;;;12.35;64.49
46944;BME280;32678;43.852;25.952;2022-10-16T06:45:00;102317.72;;;12.63;63.79
46944;BME280;32678;43.852;25.952;2022-10-16T06:49:57;102322.72;;;12.80;63.49
46944;BME280;32678;43.852;25.952;2022-10-16T06:54:55;102320.56;;;13.00;63.69
46944;BME280;32678;43.852;25.952;2022-10-16T06:59:51;102322.88;;;13.20;63.93
46944;BME280;32678;43.852;25.952;2022-10-16T07:04:51;102330.81;;;12.11;68.61
46944;BME280;32678;43.852;25.952;2022-10-16T07:09:48;102329.53;;;11.75;70.58
46944;BME280;32678;43.852;25.952;2022-10-16T07:14:45;102329.47;;;11.81;71.29
46944;BME280;32678;43.852;25.952;2022-10-16T07:19:42;102330.16;;;11.97;71.28
46944;BME280;32678;43.852;25.952;2022-10-16T07:24:38;102338.03;;;11.95;71.48
46944;BME280;32678;43.852;25.952;2022-10-16T07:29:35;102335.69;;;11.74;73.83
46944;BME280;32678;43.852;25.952;2022-10-16T07:34:32;102339.81;;;11.93;73.56
46944;BME280;32678;43.852;25.952;2022-10-16T07:39:30;102341.69;;;11.85;75.01
46944;BME280;32678;43.852;25.952;2022-10-16T07:44:28;102334.72;;;11.81;75.72
46944;BME280;32678;43.852;25.952;2022-10-16T07:49:24;102311.50;;;12.12;74.66
46944;BME280;32678;43.852;25.952;2022-10-16T07:54:22;102317.16;;;12.43;72.77
46944;BME280;32678;43.852;25.952;2022-10-16T07:59:19;102335.97;;;12.72;72.35
46944;BME280;32678;43.852;25.952;2022-10-16T08:04:18;102339.63;;;13.17;70.96
46944;BME280;32678;43.852;25.952;2022-10-16T08:09:15;102339.06;;;13.44;68.73
46944;BME280;32678;43.852;25.952;2022-10-16T08:14:13;102352.16;;;13.49;67.24
46944;BME280;32678;43.852;25.952;2022-10-16T08:19:09;102344.88;;;13.19;68.12
46944;BME280;32678;43.852;25.952;2022-10-16T08:24:47;102349.84;;;13.34;68.80
46944;BME280;32678;43.852;25.952;2022-10-16T08:29:45;102351.84;;;13.20;69.93
46944;BME280;32678;43.852;25.952;2022-10-16T08:34:43;102354.06;;;13.42;68.50
46944;BME280;32678;43.852;25.952;2022-10-16T08:39:40;102359.06;;;13.56;68.16
46944;BME280;32678;43.852;25.952;2022-10-16T08:49:53;102360.44;;;14.15;64.42
46944;BME280;32678;43.852;25.952;2022-10-16T08:54:52;102356.81;;;14.19;64.42
46944;BME280;32678;43.852;25.952;2022-10-16T08:59:50;102365.41;;;14.27;64.13
46944;BME280;32678;43.852;25.952;2022-10-16T09:04:51;102363.97;;;14.14;63.27
46944;BME280;32678;43.852;25.952;2022-10-16T09:10:01;102359.59;;;14.52;62.33
46944;BME280;32678;43.852;25.952;2022-10-16T09:15:07;102364.78;;;14.56;61.82
46944;BME280;32678;43.852;25.952;2022-10-16T09:20:19;102351.53;;;14.93;60.93
46944;BME280;32678;43.852;25.952;2022-10-16T09:25:20;102352.31;;;14.61;60.19
46944;BME280;32678;43.852;25.952;2022-10-16T09:30:18;102355.31;;;14.48;59.66
46944;BME280;32678;43.852;25.952;2022-10-16T09:35:16;102355.03;;;14.60;59.06
46944;BME280;32678;43.852;25.952;2022-10-16T09:40:23;102343.41;;;15.01;57.68
46944;BME280;32678;43.852;25.952;2022-10-16T09:45:23;102338.72;;;14.78;58.02
46944;BME280;32678;43.852;25.952;2022-10-16T09:50:20;102329.59;;;15.24;56.83
46944;BME280;32678;43.852;25.952;2022-10-16T09:55:22;102325.84;;;15.00;56.27
46944;BME280;32678;43.852;25.952;2022-10-16T10:00:21;102315.81;;;15.12;55.94
46944;BME280;32678;43.852;25.952;2022-10-16T10:05:18;102316.09;;;15.02;56.01
46944;BME280;32678;43.852;25.952;2022-10-16T10:10:19;102317.41;;;15.18;54.58
46944;BME280;32678;43.852;25.952;2022-10-16T10:15:18;102316.28;;;15.27;54.12
46944;BME280;32678;43.852;25.952;2022-10-16T10:20:24;102315.38;;;15.28;52.21
46944;BME280;32678;43.852;25.952;2022-10-16T10:30:35;102312.72;;;15.60;52.16
46944;BME280;32678;43.852;25.952;2022-10-16T10:35:34;102302.16;;;15.89;51.74
46944;BME280;32678;43.852;25.952;2022-10-16T10:40:40;102310.31;;;15.82;52.09
46944;BME280;32678;43.852;25.952;2022-10-16T10:45:42;102286.81;;;15.73;51.17
46944;BME280;32678;43.852;25.952;2022-10-16T10:50:56;102297.16;;;16.08;50.78
46944;BME280;32678;43.852;25.952;2022-10-16T10:56:03;102294.75;;;16.00;51.41
46944;BME280;32678;43.852;25.952;2022-10-16T11:01:06;102281.56;;;16.27;49.80
46944;BME280;32678;43.852;25.952;2022-10-16T11:06:05;102280.88;;;16.74;48.42
46944;BME280;32678;43.852;25.952;2022-10-16T11:11:05;102282.00;;;16.41;48.51
46944;BME280;32678;43.852;25.952;2022-10-16T11:16:07;102278.78;;;16.31;49.28
46944;BME280;32678;43.852;25.952;2022-10-16T11:21:07;102282.06;;;16.38;49.19
46944;BME280;32678;43.852;25.952;2022-10-16T11:26:09;102281.84;;;16.18;49.13
46944;BME280;32678;43.852;25.952;2022-10-16T11:31:11;102266.25;;;16.63;46.87
46944;BME280;32678;43.852;25.952;2022-10-16T11:36:11;102261.31;;;16.78;47.55
46944;BME280;32678;43.852;25.952;2022-10-16T11:41:10;102271.91;;;17.03;47.12
46944;BME280;32678;43.852;25.952;2022-10-16T11:46:13;102271.63;;;17.11;46.43
46944;BME280;32678;43.852;25.952;2022-10-16T11:51:17;102271.88;;;17.28;46.16
46944;BME280;32678;43.852;25.952;2022-10-16T11:56:20;102268.53;;;17.23;45.89
46944;BME280;32678;43.852;25.952;2022-10-16T12:01:19;102270.53;;;17.16;46.21
46944;BME280;32678;43.852;25.952;2022-10-16T12:06:26;102265.28;;;17.40;45.72
46944;BME280;32678;43.852;25.952;2022-10-16T12:11:36;102269.97;;;17.31;45.83
46944;BME280;32678;43.852;25.952;2022-10-16T12:16:34;102272.41;;;17.38;45.86
46944;BME280;32678;43.852;25.952;2022-10-16T12:21:33;102271.50;;;17.62;44.77
46944;BME280;32678;43.852;25.952;2022-10-16T12:26:31;102289.00;;;17.43;45.62
46944;BME280;32678;43.852;25.952;2022-10-16T12:31:36;102287.38;;;17.63;44.85
46944;BME280;32678;43.852;25.952;2022-10-16T12:36:49;102280.28;;;17.64;44.99
46944;BME280;32678;43.852;25.952;2022-10-16T12:42:00;102283.88;;;17.38;45.59
46944;BME280;32678;43.852;25.952;2022-10-16T12:46:57;102286.13;;;17.49;45.50
46944;BME280;32678;43.852;25.952;2022-10-16T12:51:54;102286.22;;;17.46;45.24
46944;BME280;32678;43.852;25.952;2022-10-16T12:56:58;102281.56;;;17.52;45.55
46944;BME280;32678;43.852;25.952;2022-10-16T13:02:05;102285.25;;;17.73;44.92
46944;BME280;32678;43.852;25.952;2022-10-16T13:07:12;102287.09;;;17.46;44.67
46944;BME280;32678;43.852;25.952;2022-10-16T13:12:19;102279.63;;;17.81;43.90
46944;BME280;32678;43.852;25.952;2022-10-16T13:17:22;102289.25;;;17.60;44.07
46944;BME280;32678;43.852;25.952;2022-10-16T13:22:22;102291.97;;;17.82;43.74
46944;BME280;32678;43.852;25.952;2022-10-16T13:27:29;102295.69;;;17.78;43.20
46944;BME280;32678;43.852;25.952;2022-10-16T13:32:30;102288.00;;;17.93;42.89
46944;BME280;32678;43.852;25.952;2022-10-16T13:37:27;102287.72;;;17.78;43.38
46944;BME280;32678;43.852;25.952;2022-10-16T13:42:25;102279.03;;;17.96;42.52
46944;BME280;32678;43.852;25.952;2022-10-16T13:47:24;102283.19;;;17.56;43.24
46944;BME280;32678;43.852;25.952;2022-10-16T13:52:23;102289.31;;;17.82;42.76
46944;BME280;32678;43.852;25.952;2022-10-16T13:57:21;102299.88;;;17.83;42.37
46944;BME280;32678;43.852;25.952;2022-10-16T14:02:25;102305.69;;;17.69;42.69
46944;BME280;32678;43.852;25.952;2022-10-16T14:07:24;102300.09;;;17.54;42.60
46944;BME280;32678;43.852;25.952;2022-10-16T14:12:24;102301.34;;;17.68;42.50
46944;BME280;32678;43.852;25.952;2022-10-16T14:17:24;102320.16;;;17.61;42.66
46944;BME280;32678;43.852;25.952;2022-10-16T14:22:25;102322.03;;;17.82;42.06
46944;BME280;32678;43.852;25.952;2022-10-16T14:27:26;102316.91;;;17.99;41.80
46944;BME280;32678;43.852;25.952;2022-10-16T14:32:24;102318.69;;;17.99;41.18
46944;BME280;32678;43.852;25.952;2022-10-16T14:37:23;102301.63;;;18.06;40.94
46944;BME280;32678;43.852;25.952;2022-10-16T14:42:24;102313.28;;;18.24;41.17
46944;BME280;32678;43.852;25.952;2022-10-16T14:47:23;102317.56;;;18.06;41.04
46944;BME280;32678;43.852;25.952;2022-10-16T14:52:22;102324.78;;;18.24;40.78
46944;BME280;32678;43.852;25.952;2022-10-16T14:57:20;102316.72;;;18.27;40.51
46944;BME280;32678;43.852;25.952;2022-10-16T15:02:20;102324.00;;;18.22;40.08
46944;BME280;32678;43.852;25.952;2022-10-16T15:07:37;102319.56;;;18.23;40.05
46944;BME280;32678;43.852;25.952;2022-10-16T15:12:34;102331.81;;;18.25;40.34
46944;BME280;32678;43.852;25.952;2022-10-16T15:17:32;102332.44;;;18.32;40.38
46944;BME280;32678;43.852;25.952;2022-10-16T15:22:28;102336.03;;;18.31;40.43
46944;BME280;32678;43.852;25.952;2022-10-16T15:27:27;102344.91;;;18.30;40.60
46944;BME280;32678;43.852;25.952;2022-10-16T15:32:24;102351.03;;;18.32;40.30
46944;BME280;32678;43.852;25.952;2022-10-16T15:37:22;102360.97;;;18.27;40.47
46944;BME280;32678;43.852;25.952;2022-10-16T15:42:18;102363.81;;;18.22;40.46
46944;BME280;32678;43.852;25.952;2022-10-16T15:47:15;102370.09;;;18.19;40.53
46944;BME280;32678;43.852;25.952;2022-10-16T15:52:12;102362.31;;;18.15;40.79
46944;BME280;32678;43.852;25.952;2022-10-16T15:57:09;102368.84;;;18.06;41.09
46944;BME280;32678;43.852;25.952;2022-10-16T16:02:05;102374.50;;;17.97;40.92
46944;BME280;32678;43.852;25.952;2022-10-16T16:07:02;102376.34;;;17.95;41.06
46944;BME280;32678;43.852;25.952;2022-10-16T16:11:59;102383.56;;;17.92;41.17
46944;BME280;32678;43.852;25.952;2022-10-16T16:16:57;102394.19;;;17.92;41.45
46944;BME280;32678;43.852;25.952;2022-10-16T16:21:54;102395.28;;;17.86;41.24
46944;BME280;32678;43.852;25.952;2022-10-16T16:26:51;102380.03;;;17.68;41.58
46944;BME280;32678;43.852;25.952;2022-10-16T16:31:47;102407.44;;;17.68;41.65
46944;BME280;32678;43.852;25.952;2022-10-16T16:36:45;102411.06;;;17.66;41.80
46944;BME280;32678;43.852;25.952;2022-10-16T16:41:43;102406.84;;;17.60;41.91
46944;BME280;32678;43.852;25.952;2022-10-16T16:46:41;102419.19;;;17.61;41.34
46944;BME280;32678;43.852;25.952;2022-10-16T16:51:39;102416.88;;;17.51;41.60
46944;BME280;32678;43.852;25.952;2022-10-16T16:56:37;102427.00;;;17.40;41.94
46944;BME280;32678;43.852;25.952;2022-10-16T17:01:33;102427.13;;;17.35;41.81
46944;BME280;32678;43.852;25.952;2022-10-16T17:06:30;102439.00;;;17.25;42.05
46944;BME280;32678;43.852;25.952;2022-10-16T17:11:27;102445.84;;;17.30;41.75
46944;BME280;32678;43.852;25.952;2022-10-16T17:16:25;102450.88;;;17.40;41.90
46944;BME280;32678;43.852;25.952;2022-10-16T17:21:25;102446.41;;;17.40;41.64
46944;BME280;32678;43.852;25.952;2022-10-16T17:26:24;102449.06;;;17.40;41.63
46944;BME280;32678;43.852;25.952;2022-10-16T17:31:27;102456.59;;;17.27;41.47
46944;BME280;32678;43.852;25.952;2022-10-16T17:36:29;102463.47;;;17.07;41.91
46944;BME280;32678;43.852;25.952;2022-10-16T17:41:27;102454.16;;;16.95;42.00
46944;BME280;32678;43.852;25.952;2022-10-16T17:46:24;102463.91;;;16.93;42.10
46944;BME280;32678;43.852;25.952;2022-10-16T17:51:22;102465.13;;;16.83;42.13
46944;BME280;32678;43.852;25.952;2022-10-16T17:56:25;102471.91;;;16.64;42.17
46944;BME280;32678;43.852;25.952;2022-10-16T18:01:25;102464.38;;;16.50;42.19
46944;BME280;32678;43.852;25.952;2022-10-16T18:06:21;102473.50;;;16.40;42.24
46944;BME280;32678;43.852;25.952;2022-10-16T18:11:19;102467.00;;;16.50;42.27
46944;BME280;32678;43.852;25.952;2022-10-16T18:16:17;102477.50;;;16.53;41.95
46944;BME280;32678;43.852;25.952;2022-10-16T18:21:14;102483.78;;;16.51;41.91
46944;BME280;32678;43.852;25.952;2022-10-16T18:26:15;102484.53;;;16.54;41.94
46944;BME280;32678;43.852;25.952;2022-10-16T18:31:13;102491.13;;;16.70;41.66
46944;BME280;32678;43.852;25.952;2022-10-16T18:36:13;102491.91;;;16.74;41.47
46944;BME280;32678;43.852;25.952;2022-10-16T18:41:15;102501.81;;;16.67;41.25
46944;BME280;32678;43.852;25.952;2022-10-16T18:46:14;102503.22;;;16.50;41.55
46944;BME280;32678;43.852;25.952;2022-10-16T18:51:14;102507.59;;;16.51;41.50
46944;BME280;32678;43.852;25.952;2022-10-16T18:56:11;102515.59;;;16.47;41.47
46944;BME280;32678;43.852;25.952;2022-10-16T19:01:12;102523.53;;;16.49;41.30
46944;BME280;32678;43.852;25.952;2022-10-16T19:06:16;102526.88;;;16.56;41.19
46944;BME280;32678;43.852;25.952;2022-10-16T19:11:13;102523.53;;;16.49;41.44
46944;BME280;32678;43.852;25.952;2022-10-16T19:16:13;102523.53;;;16.49;41.59
46944;BME280;32678;43.852;25.952;2022-10-16T19:21:18;102526.28;;;16.46;41.46
46944;BME280;32678;43.852;25.952;2022-10-16T19:26:16;102534.59;;;16.32;41.59
46944;BME280;32678;43.852;25.952;2022-10-16T19:31:13;102544.50;;;16.26;41.66
46944;BME280;32678;43.852;25.952;2022-10-16T19:36:13;102554.88;;;16.02;42.02
46944;BME280;32678;43.852;25.952;2022-10-16T19:41:11;102557.09;;;15.84;42.02
46944;BME280;32678;43.852;25.952;2022-10-16T19:46:09;102564.81;;;15.93;42.15
46944;BME280;32678;43.852;25.952;2022-10-16T19:51:06;102569.75;;;16.07;41.99
46944;BME280;32678;43.852;25.952;2022-10-16T19:56:11;102577.81;;;16.02;41.81
46944;BME280;32678;43.852;25.952;2022-10-16T20:01:08;102584.66;;;16.09;41.69
46944;BME280;32678;43.852;25.952;2022-10-16T20:06:07;102587.28;;;16.09;41.59
46944;BME280;32678;43.852;25.952;2022-10-16T20:11:04;102588.16;;;16.10;41.51
46944;BME280;32678;43.852;25.952;2022-10-16T20:16:02;102596.75;;;16.18;41.56
46944;BME280;32678;43.852;25.952;2022-10-16T20:21:07;102600.66;;;16.04;41.52
46944;BME280;32678;43.852;25.952;2022-10-16T20:26:04;102592.75;;;15.69;42.35
46944;BME280;32678;43.852;25.952;2022-10-16T20:31:05;102596.66;;;15.88;41.88
46944;BME280;32678;43.852;25.952;2022-10-16T20:36:02;102587.97;;;15.83;41.76
46944;BME280;32678;43.852;25.952;2022-10-16T20:41:01;102595.50;;;15.98;41.43
46944;BME280;32678;43.852;25.952;2022-10-16T20:45:59;102601.41;;;16.10;41.47
46944;BME280;32678;43.852;25.952;2022-10-16T20:50:56;102607.72;;;16.04;41.45
46944;BME280;32678;43.852;25.952;2022-10-16T20:55:54;102613.88;;;16.04;42.29
46944;BME280;32678;43.852;25.952;2022-10-16T21:00:51;102610.91;;;16.17;41.78
46944;BME280;32678;43.852;25.952;2022-10-16T21:05:48;102607.31;;;16.19;41.28
46944;BME280;32678;43.852;25.952;2022-10-16T21:10:45;102616.22;;;16.17;41.71
46944;BME280;32678;43.852;25.952;2022-10-16T21:15:42;102619.66;;;15.86;44.30
46944;BME280;32678;43.852;25.952;2022-10-16T21:20:40;102629.38;;;15.49;49.67
46944;BME280;32678;43.852;25.952;2022-10-16T21:25:37;102634.78;;;15.43;53.24
46944;BME280;32678;43.852;25.952;2022-10-16T21:30:34;102639.88;;;15.13;56.29
46944;BME280;32678;43.852;25.952;2022-10-16T21:35:31;102638.09;;;14.26;57.65
46944;BME280;32678;43.852;25.952;2022-10-16T21:40:27;102606.44;;;14.26;56.79
46944;BME280;32678;43.852;25.952;2022-10-16T21:45:25;102646.28;;;15.02;54.88
46944;BME280;32678;43.852;25.952;2022-10-16T21:50:22;102652.69;;;15.30;53.91
46944;BME280;32678;43.852;25.952;2022-10-16T21:55:19;102645.38;;;15.43;53.42
46944;BME280;32678;43.852;25.952;2022-10-16T22:00:15;102657.31;;;15.60;53.59
46944;BME280;32678;43.852;25.952;2022-10-16T22:05:12;102663.34;;;15.66;53.91
46944;BME280;32678;43.852;25.952;2022-10-16T22:10:10;102667.25;;;15.86;53.34
46944;BME280;32678;43.852;25.952;2022-10-16T22:15:07;102659.06;;;15.60;53.37
46944;BME280;32678;43.852;25.952;2022-10-16T22:20:04;102665.63;;;15.44;53.73
46944;BME280;32678;43.852;25.952;2022-10-16T22:25:02;102663.38;;;15.64;53.44
46944;BME280;32678;43.852;25.952;2022-10-16T22:29:59;102640.44;;;15.26;52.98
46944;BME280;32678;43.852;25.952;2022-10-16T22:34:56;102662.47;;;15.27;50.52
46944;BME280;32678;43.852;25.952;2022-10-16T22:39:53;102673.69;;;15.36;47.05
46944;BME280;32678;43.852;25.952;2022-10-16T22:44:55;102675.44;;;15.37;44.57
46944;BME280;32678;43.852;25.952;2022-10-16T22:49:53;102678.53;;;15.17;43.78
46944;BME280;32678;43.852;25.952;2022-10-16T22:54:50;102678.69;;;15.10;43.74
46944;BME280;32678;43.852;25.952;2022-10-16T22:59:47;102690.31;;;15.01;46.40
46944;BME280;32678;43.852;25.952;2022-10-16T23:04:44;102692.94;;;15.01;49.75
46944;BME280;32678;43.852;25.952;2022-10-16T23:09:41;102691.44;;;14.90;52.38
46944;BME280;32678;43.852;25.952;2022-10-16T23:14:40;102689.94;;;14.77;52.61
46944;BME280;32678;43.852;25.952;2022-10-16T23:19:37;102697.03;;;14.73;53.43
46944;BME280;32678;43.852;25.952;2022-10-16T23:24:33;102693.59;;;14.69;55.75
46944;BME280;32678;43.852;25.952;2022-10-16T23:29:31;102697.66;;;14.87;56.31
46944;BME280;32678;43.852;25.952;2022-10-16T23:34:27;102702.63;;;15.01;56.35
46944;BME280;32678;43.852;25.952;2022-10-16T23:39:24;102711.50;;;15.00;56.61
46944;BME280;32678;43.852;25.952;2022-10-16T23:44:22;102710.72;;;14.93;56.93
46944;BME280;32678;43.852;25.952;2022-10-16T23:49:20;102707.88;;;15.04;56.82
46944;BME280;32678;43.852;25.952;2022-10-16T23:54:18;102717.09;;;15.26;56.58
46944;BME280;32678;43.852;25.952;2022-10-16T23:59:15;102716.75;;;15.41;55.95
